Benton, California
Current Conditions -  °F | °C
As of 4:35 AM on Friday 24 Oct 2014 (Local Time) from KMMH Reporting Station
Clear Clear  
Wind Chill: 39°   Ceiling: Unl
Heat Index: 39°   Visibility: 10mi
Dew Point: 19°   Wind: 0mph
Humidity: 45%   Direction: NA
Pressure: 30.23"   Gusts: NA
Location:  37.82°N, 118.48°W
Report Text: KMMH 241135Z AUTO 00000KT 10SM CLR 04/M07 A3023 RMK AO1
Loading
Personal Weather Stations






























Interactive Weather Map
Tropical Storm Tracking
New forecast layout! Learn more

10-Day Weather Forecast

Advertisements
Track Severe Weather on mobile